sensor_id;sensor_type;location;lat;lon;timestamp;temperature;humidity
43673;DHT22;41723;49.326;8.430;2022-12-18T00:01:53;-3.60;99.90
43673;DHT22;41723;49.326;8.430;2022-12-18T00:04:23;-3.70;99.90
43673;DHT22;41723;49.326;8.430;2022-12-18T00:06:49;-3.80;99.90
43673;DHT22;41723;49.326;8.430;2022-12-18T00:09:15;-3.90;99.90
43673;DHT22;41723;49.326;8.430;2022-12-18T00:11:41;-3.90;99.90
43673;DHT22;41723;49.326;8.430;2022-12-18T00:14:06;-3.90;99.90
43673;DHT22;41723;49.326;8.430;2022-12-18T00:16:32;-4.00;99.90
43673;DHT22;41723;49.326;8.430;2022-12-18T00:19:00;-3.80;99.90
43673;DHT22;41723;49.326;8.430;2022-12-18T00:21:27;-4.00;99.90
43673;DHT22;41723;49.326;8.430;2022-12-18T00:23:53;-4.10;99.90
43673;DHT22;41723;49.326;8.430;2022-12-18T00:26:20;-4.20;99.90
43673;DHT22;41723;49.326;8.430;2022-12-18T00:28:48;-4.10;99.90
43673;DHT22;41723;49.326;8.430;2022-12-18T00:31:15;-4.00;99.90
43673;DHT22;41723;49.326;8.430;2022-12-18T00:33:41;-3.90;99.90
43673;DHT22;41723;49.326;8.430;2022-12-18T00:36:09;-4.10;99.90
43673;DHT22;41723;49.326;8.430;2022-12-18T00:38:35;-4.00;99.90
43673;DHT22;41723;49.326;8.430;2022-12-18T00:41:01;-3.80;99.90
43673;DHT22;41723;49.326;8.430;2022-12-18T00:43:27;-3.80;99.90
43673;DHT22;41723;49.326;8.430;2022-12-18T00:45:52;-4.00;99.90
43673;DHT22;41723;49.326;8.430;2022-12-18T00:48:18;-3.90;99.90
43673;DHT22;41723;49.326;8.430;2022-12-18T00:50:44;-4.00;99.90
43673;DHT22;41723;49.326;8.430;2022-12-18T00:53:10;-4.10;99.90
43673;DHT22;41723;49.326;8.430;2022-12-18T00:55:37;-4.10;99.90
43673;DHT22;41723;49.326;8.430;2022-12-18T00:58:02;-3.90;99.90
43673;DHT22;41723;49.326;8.430;2022-12-18T01:00:28;-3.80;99.90
43673;DHT22;41723;49.326;8.430;2022-12-18T01:02:53;-3.80;99.90
43673;DHT22;41723;49.326;8.430;2022-12-18T01:05:19;-4.00;99.90
43673;DHT22;41723;49.326;8.430;2022-12-18T01:07:44;-3.90;99.90
43673;DHT22;41723;49.326;8.430;2022-12-18T01:10:11;-3.80;99.90
43673;DHT22;41723;49.326;8.430;2022-12-18T01:12:37;-3.70;99.90
43673;DHT22;41723;49.326;8.430;2022-12-18T01:15:03;-4.00;99.90
43673;DHT22;41723;49.326;8.430;2022-12-18T01:17:28;-4.10;99.90
43673;DHT22;41723;49.326;8.430;2022-12-18T01:19:54;-4.30;99.90
43673;DHT22;41723;49.326;8.430;2022-12-18T01:22:19;-4.20;99.90
43673;DHT22;41723;49.326;8.430;2022-12-18T01:24:45;-4.30;99.90
43673;DHT22;41723;49.326;8.430;2022-12-18T01:27:11;-4.30;99.90
43673;DHT22;41723;49.326;8.430;2022-12-18T01:29:36;-4.30;99.90
43673;DHT22;41723;49.326;8.430;2022-12-18T01:32:02;-4.10;99.90
43673;DHT22;41723;49.326;8.430;2022-12-18T01:34:29;-4.10;99.90
43673;DHT22;41723;49.326;8.430;2022-12-18T01:36:54;-4.00;99.90
43673;DHT22;41723;49.326;8.430;2022-12-18T01:39:20;-4.20;99.90
43673;DHT22;41723;49.326;8.430;2022-12-18T01:41:46;-4.30;99.90
43673;DHT22;41723;49.326;8.430;2022-12-18T01:47:14;-4.20;99.90
43673;DHT22;41723;49.326;8.430;2022-12-18T01:49:40;-4.20;99.90
43673;DHT22;41723;49.326;8.430;2022-12-18T01:52:07;-4.00;99.90
43673;DHT22;41723;49.326;8.430;2022-12-18T01:54:32;-4.10;99.90
43673;DHT22;41723;49.326;8.430;2022-12-18T01:56:58;-4.00;99.90
43673;DHT22;41723;49.326;8.430;2022-12-18T01:59:24;-3.80;99.90
43673;DHT22;41723;49.326;8.430;2022-12-18T02:01:50;-3.90;99.90
43673;DHT22;41723;49.326;8.430;2022-12-18T02:04:19;-3.80;99.90
43673;DHT22;41723;49.326;8.430;2022-12-18T02:06:45;-3.70;99.90
43673;DHT22;41723;49.326;8.430;2022-12-18T02:09:14;-3.90;99.90
43673;DHT22;41723;49.326;8.430;2022-12-18T02:22:35;-4.00;99.90
43673;DHT22;41723;49.326;8.430;2022-12-18T02:25:18;-3.90;99.90
43673;DHT22;41723;49.326;8.430;2022-12-18T02:27:46;-4.00;99.90
43673;DHT22;41723;49.326;8.430;2022-12-18T02:30:13;-4.20;99.90
43673;DHT22;41723;49.326;8.430;2022-12-18T02:32:40;-4.20;99.90
43673;DHT22;41723;49.326;8.430;2022-12-18T02:35:11;-4.20;99.90
43673;DHT22;41723;49.326;8.430;2022-12-18T02:37:38;-4.20;99.90
43673;DHT22;41723;49.326;8.430;2022-12-18T02:40:05;-4.10;99.90
43673;DHT22;41723;49.326;8.430;2022-12-18T02:42:34;-4.10;99.90
43673;DHT22;41723;49.326;8.430;2022-12-18T02:45:01;-4.10;99.90
43673;DHT22;41723;49.326;8.430;2022-12-18T02:47:32;-4.10;99.90
43673;DHT22;41723;49.326;8.430;2022-12-18T02:52:58;-4.30;99.90
43673;DHT22;41723;49.326;8.430;2022-12-18T02:58:18;-4.10;99.90
43673;DHT22;41723;49.326;8.430;2022-12-18T03:00:53;-4.30;99.90
43673;DHT22;41723;49.326;8.430;2022-12-18T03:03:27;-4.50;99.90
43673;DHT22;41723;49.326;8.430;2022-12-18T03:05:57;-4.40;99.90
43673;DHT22;41723;49.326;8.430;2022-12-18T03:08:29;-4.50;99.90
43673;DHT22;41723;49.326;8.430;2022-12-18T03:11:02;-4.40;99.90
43673;DHT22;41723;49.326;8.430;2022-12-18T03:13:39;-4.20;99.90
43673;DHT22;41723;49.326;8.430;2022-12-18T03:16:06;-4.20;99.90
43673;DHT22;41723;49.326;8.430;2022-12-18T03:21:04;-4.20;99.90
43673;DHT22;41723;49.326;8.430;2022-12-18T03:23:34;-4.10;99.90
43673;DHT22;41723;49.326;8.430;2022-12-18T03:26:04;-3.80;99.90
43673;DHT22;41723;49.326;8.430;2022-12-18T03:28:31;-3.70;99.90
43673;DHT22;41723;49.326;8.430;2022-12-18T03:31:02;-3.90;99.90
43673;DHT22;41723;49.326;8.430;2022-12-18T03:36:02;-3.70;99.90
43673;DHT22;41723;49.326;8.430;2022-12-18T03:38:28;-3.60;99.90
43673;DHT22;41723;49.326;8.430;2022-12-18T03:46:34;-3.70;99.90
43673;DHT22;41723;49.326;8.430;2022-12-18T03:49:19;-4.00;99.90
43673;DHT22;41723;49.326;8.430;2022-12-18T03:51:50;-3.90;99.90
43673;DHT22;41723;49.326;8.430;2022-12-18T03:54:18;-3.70;99.90
43673;DHT22;41723;49.326;8.430;2022-12-18T03:56:58;-3.60;99.90
43673;DHT22;41723;49.326;8.430;2022-12-18T03:59:25;-3.50;99.90
43673;DHT22;41723;49.326;8.430;2022-12-18T04:01:52;-3.80;99.90
43673;DHT22;41723;49.326;8.430;2022-12-18T04:04:19;-3.70;99.90
43673;DHT22;41723;49.326;8.430;2022-12-18T04:06:46;-3.70;99.90
43673;DHT22;41723;49.326;8.430;2022-12-18T04:09:12;-3.60;99.90
43673;DHT22;41723;49.326;8.430;2022-12-18T04:11:43;-3.90;99.90
43673;DHT22;41723;49.326;8.430;2022-12-18T04:14:10;-3.80;99.90
43673;DHT22;41723;49.326;8.430;2022-12-18T04:16:36;-3.80;99.90
43673;DHT22;41723;49.326;8.430;2022-12-18T04:19:04;-3.70;99.90
43673;DHT22;41723;49.326;8.430;2022-12-18T04:21:35;-3.70;99.90
43673;DHT22;41723;49.326;8.430;2022-12-18T04:24:01;-3.60;99.90
43673;DHT22;41723;49.326;8.430;2022-12-18T04:26:27;-3.70;99.90
43673;DHT22;41723;49.326;8.430;2022-12-18T04:29:09;-3.80;99.90
43673;DHT22;41723;49.326;8.430;2022-12-18T04:31:35;-3.90;99.90
43673;DHT22;41723;49.326;8.430;2022-12-18T04:34:01;-4.10;99.90
43673;DHT22;41723;49.326;8.430;2022-12-18T04:36:27;-4.00;99.90
43673;DHT22;41723;49.326;8.430;2022-12-18T04:38:54;-4.10;99.90
43673;DHT22;41723;49.326;8.430;2022-12-18T04:41:20;-4.00;99.90
43673;DHT22;41723;49.326;8.430;2022-12-18T04:43:47;-4.10;99.90
43673;DHT22;41723;49.326;8.430;2022-12-18T04:46:13;-3.90;99.90
43673;DHT22;41723;49.326;8.430;2022-12-18T04:48:39;-4.00;99.90
43673;DHT22;41723;49.326;8.430;2022-12-18T04:51:05;-4.00;99.90
43673;DHT22;41723;49.326;8.430;2022-12-18T04:53:31;-3.80;99.90
43673;DHT22;41723;49.326;8.430;2022-12-18T04:56:07;-3.60;99.90
43673;DHT22;41723;49.326;8.430;2022-12-18T04:58:33;-3.40;99.90
43673;DHT22;41723;49.326;8.430;2022-12-18T05:00:59;-3.30;99.90
43673;DHT22;41723;49.326;8.430;2022-12-18T05:03:24;-3.20;99.90
43673;DHT22;41723;49.326;8.430;2022-12-18T05:05:50;-3.10;99.90
43673;DHT22;41723;49.326;8.430;2022-12-18T05:08:16;-3.20;99.90
43673;DHT22;41723;49.326;8.430;2022-12-18T05:10:42;-3.50;99.90
43673;DHT22;41723;49.326;8.430;2022-12-18T05:13:07;-3.50;99.90
43673;DHT22;41723;49.326;8.430;2022-12-18T05:15:33;-3.70;99.90
43673;DHT22;41723;49.326;8.430;2022-12-18T05:17:59;-3.50;99.90
43673;DHT22;41723;49.326;8.430;2022-12-18T05:20:25;-3.30;99.90
43673;DHT22;41723;49.326;8.430;2022-12-18T05:22:51;-3.70;99.90
43673;DHT22;41723;49.326;8.430;2022-12-18T05:25:16;-3.50;99.90
43673;DHT22;41723;49.326;8.430;2022-12-18T05:27:42;-3.70;99.90
43673;DHT22;41723;49.326;8.430;2022-12-18T05:30:08;-3.70;99.90
43673;DHT22;41723;49.326;8.430;2022-12-18T05:32:34;-3.80;99.90
43673;DHT22;41723;49.326;8.430;2022-12-18T05:35:00;-3.70;99.90
43673;DHT22;41723;49.326;8.430;2022-12-18T05:37:25;-3.70;99.90
43673;DHT22;41723;49.326;8.430;2022-12-18T05:39:51;-3.80;99.90
43673;DHT22;41723;49.326;8.430;2022-12-18T05:42:16;-3.60;99.90
43673;DHT22;41723;49.326;8.430;2022-12-18T05:44:42;-3.60;99.90
43673;DHT22;41723;49.326;8.430;2022-12-18T05:47:08;-3.70;99.90
43673;DHT22;41723;49.326;8.430;2022-12-18T05:49:34;-3.60;99.90
43673;DHT22;41723;49.326;8.430;2022-12-18T05:51:59;-3.50;99.90
43673;DHT22;41723;49.326;8.430;2022-12-18T05:54:26;-3.70;99.90
43673;DHT22;41723;49.326;8.430;2022-12-18T05:56:52;-3.70;99.90
43673;DHT22;41723;49.326;8.430;2022-12-18T05:59:18;-3.60;99.90
43673;DHT22;41723;49.326;8.430;2022-12-18T06:01:43;-3.60;99.90
43673;DHT22;41723;49.326;8.430;2022-12-18T06:04:09;-3.60;99.90
43673;DHT22;41723;49.326;8.430;2022-12-18T06:06:35;-3.60;99.90
43673;DHT22;41723;49.326;8.430;2022-12-18T06:09:00;-3.60;99.90
43673;DHT22;41723;49.326;8.430;2022-12-18T06:11:26;-3.60;99.90
43673;DHT22;41723;49.326;8.430;2022-12-18T06:13:53;-3.50;99.90
43673;DHT22;41723;49.326;8.430;2022-12-18T06:16:19;-3.40;99.90
43673;DHT22;41723;49.326;8.430;2022-12-18T06:18:44;-3.60;99.90
43673;DHT22;41723;49.326;8.430;2022-12-18T06:21:10;-3.60;99.90
43673;DHT22;41723;49.326;8.430;2022-12-18T06:23:35;-3.50;99.90
43673;DHT22;41723;49.326;8.430;2022-12-18T06:26:08;-3.60;99.90
43673;DHT22;41723;49.326;8.430;2022-12-18T06:28:34;-3.50;99.90
43673;DHT22;41723;49.326;8.430;2022-12-18T06:31:00;-3.50;99.90
43673;DHT22;41723;49.326;8.430;2022-12-18T06:33:26;-3.50;99.90
43673;DHT22;41723;49.326;8.430;2022-12-18T06:35:52;-3.50;99.90
43673;DHT22;41723;49.326;8.430;2022-12-18T06:38:17;-3.50;99.90
43673;DHT22;41723;49.326;8.430;2022-12-18T06:40:43;-3.50;99.90
43673;DHT22;41723;49.326;8.430;2022-12-18T06:43:09;-3.60;99.90
43673;DHT22;41723;49.326;8.430;2022-12-18T06:45:34;-3.50;99.90
43673;DHT22;41723;49.326;8.430;2022-12-18T06:48:00;-3.40;99.90
43673;DHT22;41723;49.326;8.430;2022-12-18T06:50:26;-3.60;99.90
43673;DHT22;41723;49.326;8.430;2022-12-18T06:52:51;-3.60;99.90
43673;DHT22;41723;49.326;8.430;2022-12-18T06:55:17;-3.50;99.90
43673;DHT22;41723;49.326;8.430;2022-12-18T06:57:43;-3.40;99.90
43673;DHT22;41723;49.326;8.430;2022-12-18T07:00:08;-3.40;99.90
43673;DHT22;41723;49.326;8.430;2022-12-18T07:02:34;-3.30;99.90
43673;DHT22;41723;49.326;8.430;2022-12-18T07:05:00;-3.40;99.90
43673;DHT22;41723;49.326;8.430;2022-12-18T07:07:25;-3.30;99.90
43673;DHT22;41723;49.326;8.430;2022-12-18T07:09:51;-3.60;99.90
43673;DHT22;41723;49.326;8.430;2022-12-18T07:12:17;-3.60;99.90
43673;DHT22;41723;49.326;8.430;2022-12-18T07:14:43;-3.40;99.90
43673;DHT22;41723;49.326;8.430;2022-12-18T07:17:08;-3.40;99.90
43673;DHT22;41723;49.326;8.430;2022-12-18T07:19:34;-3.70;99.90
43673;DHT22;41723;49.326;8.430;2022-12-18T07:22:00;-3.40;99.90
43673;DHT22;41723;49.326;8.430;2022-12-18T07:24:26;-3.60;99.90
43673;DHT22;41723;49.326;8.430;2022-12-18T07:26:51;-3.50;99.90
43673;DHT22;41723;49.326;8.430;2022-12-18T07:29:17;-3.50;99.90
43673;DHT22;41723;49.326;8.430;2022-12-18T07:31:43;-3.60;99.90
43673;DHT22;41723;49.326;8.430;2022-12-18T07:34:12;-3.70;99.90
43673;DHT22;41723;49.326;8.430;2022-12-18T07:36:38;-3.70;99.90
43673;DHT22;41723;49.326;8.430;2022-12-18T07:39:03;-3.60;99.90
43673;DHT22;41723;49.326;8.430;2022-12-18T07:41:29;-3.70;99.90
43673;DHT22;41723;49.326;8.430;2022-12-18T07:43:55;-3.80;99.90
43673;DHT22;41723;49.326;8.430;2022-12-18T07:46:20;-3.50;99.90
43673;DHT22;41723;49.326;8.430;2022-12-18T07:48:46;-3.50;99.90
43673;DHT22;41723;49.326;8.430;2022-12-18T07:51:12;-3.40;99.90
43673;DHT22;41723;49.326;8.430;2022-12-18T07:53:38;-3.50;99.90
43673;DHT22;41723;49.326;8.430;2022-12-18T07:56:05;-3.50;99.90
43673;DHT22;41723;49.326;8.430;2022-12-18T07:58:32;-3.60;99.90
43673;DHT22;41723;49.326;8.430;2022-12-18T08:01:07;-3.60;99.90
43673;DHT22;41723;49.326;8.430;2022-12-18T08:03:36;-3.60;99.90
43673;DHT22;41723;49.326;8.430;2022-12-18T08:06:03;-3.70;99.90
43673;DHT22;41723;49.326;8.430;2022-12-18T08:08:29;-3.70;99.90
43673;DHT22;41723;49.326;8.430;2022-12-18T08:10:55;-3.70;99.90
43673;DHT22;41723;49.326;8.430;2022-12-18T08:13:21;-3.60;99.90
43673;DHT22;41723;49.326;8.430;2022-12-18T08:15:54;-3.50;99.90
43673;DHT22;41723;49.326;8.430;2022-12-18T08:18:20;-3.40;99.90
43673;DHT22;41723;49.326;8.430;2022-12-18T08:20:46;-3.60;99.90
43673;DHT22;41723;49.326;8.430;2022-12-18T08:23:14;-3.50;99.90
43673;DHT22;41723;49.326;8.430;2022-12-18T08:25:40;-3.50;99.90
43673;DHT22;41723;49.326;8.430;2022-12-18T08:28:05;-3.70;99.90
43673;DHT22;41723;49.326;8.430;2022-12-18T08:30:31;-3.60;99.90
43673;DHT22;41723;49.326;8.430;2022-12-18T08:32:57;-3.70;99.90
43673;DHT22;41723;49.326;8.430;2022-12-18T08:35:23;-3.50;99.90
43673;DHT22;41723;49.326;8.430;2022-12-18T08:37:49;-3.30;99.90
43673;DHT22;41723;49.326;8.430;2022-12-18T08:40:15;-3.30;99.90
43673;DHT22;41723;49.326;8.430;2022-12-18T08:42:40;-3.20;99.90
43673;DHT22;41723;49.326;8.430;2022-12-18T08:45:25;-3.10;99.90
43673;DHT22;41723;49.326;8.430;2022-12-18T08:47:52;-3.20;99.90
43673;DHT22;41723;49.326;8.430;2022-12-18T08:50:19;-3.30;99.90
43673;DHT22;41723;49.326;8.430;2022-12-18T08:52:45;-3.30;99.90
43673;DHT22;41723;49.326;8.430;2022-12-18T08:55:10;-3.40;99.90
43673;DHT22;41723;49.326;8.430;2022-12-18T08:57:38;-3.40;99.90
43673;DHT22;41723;49.326;8.430;2022-12-18T09:00:04;-3.40;99.90
43673;DHT22;41723;49.326;8.430;2022-12-18T09:02:29;-3.30;99.90
43673;DHT22;41723;49.326;8.430;2022-12-18T09:04:55;-3.30;99.90
43673;DHT22;41723;49.326;8.430;2022-12-18T09:07:20;-3.30;99.90
43673;DHT22;41723;49.326;8.430;2022-12-18T09:09:46;-3.20;99.90
43673;DHT22;41723;49.326;8.430;2022-12-18T09:12:12;-3.10;99.90
43673;DHT22;41723;49.326;8.430;2022-12-18T09:14:37;-3.10;99.90
43673;DHT22;41723;49.326;8.430;2022-12-18T09:17:03;-3.10;99.90
43673;DHT22;41723;49.326;8.430;2022-12-18T09:19:28;-3.00;99.90
43673;DHT22;41723;49.326;8.430;2022-12-18T09:21:54;-3.00;99.90
43673;DHT22;41723;49.326;8.430;2022-12-18T09:24:19;-3.10;99.90
43673;DHT22;41723;49.326;8.430;2022-12-18T09:26:48;-3.10;99.90
43673;DHT22;41723;49.326;8.430;2022-12-18T09:29:14;-3.00;99.90
43673;DHT22;41723;49.326;8.430;2022-12-18T09:31:40;-2.90;99.90
43673;DHT22;41723;49.326;8.430;2022-12-18T09:34:06;-3.10;99.90
43673;DHT22;41723;49.326;8.430;2022-12-18T09:36:31;-3.00;99.90
43673;DHT22;41723;49.326;8.430;2022-12-18T09:38:57;-3.00;99.90
43673;DHT22;41723;49.326;8.430;2022-12-18T09:41:29;-3.00;99.90
43673;DHT22;41723;49.326;8.430;2022-12-18T09:43:58;-2.90;99.90
43673;DHT22;41723;49.326;8.430;2022-12-18T09:46:38;-2.80;99.90
43673;DHT22;41723;49.326;8.430;2022-12-18T09:49:06;-2.70;99.90
43673;DHT22;41723;49.326;8.430;2022-12-18T09:51:36;-2.80;99.90
43673;DHT22;41723;49.326;8.430;2022-12-18T09:54:03;-2.90;99.90
43673;DHT22;41723;49.326;8.430;2022-12-18T09:56:31;-2.90;99.90
43673;DHT22;41723;49.326;8.430;2022-12-18T09:59:00;-2.80;99.90
43673;DHT22;41723;49.326;8.430;2022-12-18T10:01:26;-2.50;99.90
43673;DHT22;41723;49.326;8.430;2022-12-18T10:03:52;-2.50;99.90
43673;DHT22;41723;49.326;8.430;2022-12-18T10:09:01;-2.70;99.90
43673;DHT22;41723;49.326;8.430;2022-12-18T10:24:22;-2.20;99.90
43673;DHT22;41723;49.326;8.430;2022-12-18T10:26:50;-2.20;99.90
43673;DHT22;41723;49.326;8.430;2022-12-18T10:29:17;-2.10;99.90
43673;DHT22;41723;49.326;8.430;2022-12-18T10:31:43;-2.10;99.90
43673;DHT22;41723;49.326;8.430;2022-12-18T10:34:12;-2.00;99.90
43673;DHT22;41723;49.326;8.430;2022-12-18T10:36:54;-2.10;99.90
43673;DHT22;41723;49.326;8.430;2022-12-18T10:39:21;-2.10;99.90
43673;DHT22;41723;49.326;8.430;2022-12-18T10:41:51;-2.00;99.90
43673;DHT22;41723;49.326;8.430;2022-12-18T10:44:18;-2.00;99.90
43673;DHT22;41723;49.326;8.430;2022-12-18T10:46:45;-2.00;99.90
43673;DHT22;41723;49.326;8.430;2022-12-18T10:51:49;-1.80;99.90
43673;DHT22;41723;49.326;8.430;2022-12-18T10:54:16;-1.80;99.90
43673;DHT22;41723;49.326;8.430;2022-12-18T10:56:42;-1.80;99.90
43673;DHT22;41723;49.326;8.430;2022-12-18T10:59:08;-1.80;99.90
43673;DHT22;41723;49.326;8.430;2022-12-18T11:01:54;-1.80;99.90
43673;DHT22;41723;49.326;8.430;2022-12-18T11:07:02;-1.60;99.90
43673;DHT22;41723;49.326;8.430;2022-12-18T11:09:29;-1.60;99.90
43673;DHT22;41723;49.326;8.430;2022-12-18T11:11:58;-1.60;99.90
43673;DHT22;41723;49.326;8.430;2022-12-18T11:14:25;-1.50;99.90
43673;DHT22;41723;49.326;8.430;2022-12-18T11:16:52;-1.40;99.90
43673;DHT22;41723;49.326;8.430;2022-12-18T11:19:31;-1.10;99.90
43673;DHT22;41723;49.326;8.430;2022-12-18T11:21:58;-1.40;99.90
43673;DHT22;41723;49.326;8.430;2022-12-18T11:24:27;-1.20;99.90
43673;DHT22;41723;49.326;8.430;2022-12-18T11:26:53;-1.10;99.90
43673;DHT22;41723;49.326;8.430;2022-12-18T11:29:23;-1.10;99.90
43673;DHT22;41723;49.326;8.430;2022-12-18T11:31:49;-1.00;99.90
43673;DHT22;41723;49.326;8.430;2022-12-18T11:34:28;-1.00;99.90
43673;DHT22;41723;49.326;8.430;2022-12-18T11:36:55;-0.90;99.90
43673;DHT22;41723;49.326;8.430;2022-12-18T11:41:56;-0.90;99.90
43673;DHT22;41723;49.326;8.430;2022-12-18T11:44:58;-0.70;99.90
43673;DHT22;41723;49.326;8.430;2022-12-18T11:50:12;-0.50;99.90
43673;DHT22;41723;49.326;8.430;2022-12-18T11:52:40;-0.40;99.90
43673;DHT22;41723;49.326;8.430;2022-12-18T11:55:13;-0.40;99.90
43673;DHT22;41723;49.326;8.430;2022-12-18T12:00:19;-0.30;99.90
43673;DHT22;41723;49.326;8.430;2022-12-18T12:07:45;-0.20;99.90
43673;DHT22;41723;49.326;8.430;2022-12-18T12:10:30;-0.10;99.90
43673;DHT22;41723;49.326;8.430;2022-12-18T12:13:05;0.00;99.90
43673;DHT22;41723;49.326;8.430;2022-12-18T12:15:39;0.10;99.90
43673;DHT22;41723;49.326;8.430;2022-12-18T12:20:42;0.20;99.90
43673;DHT22;41723;49.326;8.430;2022-12-18T12:25:43;0.20;99.90
43673;DHT22;41723;49.326;8.430;2022-12-18T12:28:25;0.00;99.90
43673;DHT22;41723;49.326;8.430;2022-12-18T12:31:00;0.00;99.90
43673;DHT22;41723;49.326;8.430;2022-12-18T12:40:59;0.00;99.90
43673;DHT22;41723;49.326;8.430;2022-12-18T12:46:03;0.10;99.90
43673;DHT22;41723;49.326;8.430;2022-12-18T12:51:12;0.10;99.90
43673;DHT22;41723;49.326;8.430;2022-12-18T12:53:39;0.20;99.90
43673;DHT22;41723;49.326;8.430;2022-12-18T12:56:04;0.20;99.90
43673;DHT22;41723;49.326;8.430;2022-12-18T12:58:41;0.30;99.90
43673;DHT22;41723;49.326;8.430;2022-12-18T13:06:42;0.30;99.90
43673;DHT22;41723;49.326;8.430;2022-12-18T13:09:08;0.30;99.90
43673;DHT22;41723;49.326;8.430;2022-12-18T13:11:44;0.20;99.90
43673;DHT22;41723;49.326;8.430;2022-12-18T13:14:32;0.20;99.90
43673;DHT22;41723;49.326;8.430;2022-12-18T13:17:14;0.20;99.90
43673;DHT22;41723;49.326;8.430;2022-12-18T13:19:41;0.20;99.90
43673;DHT22;41723;49.326;8.430;2022-12-18T13:22:19;0.20;99.90
43673;DHT22;41723;49.326;8.430;2022-12-18T13:24:45;0.20;99.90
43673;DHT22;41723;49.326;8.430;2022-12-18T13:29:56;0.10;99.90
43673;DHT22;41723;49.326;8.430;2022-12-18T13:32:22;0.00;99.90
43673;DHT22;41723;49.326;8.430;2022-12-18T13:34:48;0.00;99.90
43673;DHT22;41723;49.326;8.430;2022-12-18T13:39:58;0.00;99.90
43673;DHT22;41723;49.326;8.430;2022-12-18T13:47:52;0.10;99.90
43673;DHT22;41723;49.326;8.430;2022-12-18T13:50:22;-0.10;99.90
43673;DHT22;41723;49.326;8.430;2022-12-18T13:52:49;-0.10;99.90
43673;DHT22;41723;49.326;8.430;2022-12-18T13:55:16;-0.10;99.90
43673;DHT22;41723;49.326;8.430;2022-12-18T13:57:43;-0.10;99.90
43673;DHT22;41723;49.326;8.430;2022-12-18T14:00:51;0.00;99.90
43673;DHT22;41723;49.326;8.430;2022-12-18T14:02:58;0.10;99.90
43673;DHT22;41723;49.326;8.430;2022-12-18T14:05:24;0.10;99.90
43673;DHT22;41723;49.326;8.430;2022-12-18T14:07:50;0.20;99.90
43673;DHT22;41723;49.326;8.430;2022-12-18T14:10:17;-0.10;99.90
43673;DHT22;41723;49.326;8.430;2022-12-18T14:12:49;-0.20;99.90
43673;DHT22;41723;49.326;8.430;2022-12-18T14:17:50;-0.20;99.90
43673;DHT22;41723;49.326;8.430;2022-12-18T14:20:17;-0.30;99.90
43673;DHT22;41723;49.326;8.430;2022-12-18T14:22:43;-0.40;99.90
43673;DHT22;41723;49.326;8.430;2022-12-18T14:27:41;-0.40;99.90
43673;DHT22;41723;49.326;8.430;2022-12-18T14:30:23;-0.40;99.90
43673;DHT22;41723;49.326;8.430;2022-12-18T14:33:10;-0.50;99.90
43673;DHT22;41723;49.326;8.430;2022-12-18T14:35:37;-0.50;99.90
43673;DHT22;41723;49.326;8.430;2022-12-18T14:40:41;-0.50;99.90
43673;DHT22;41723;49.326;8.430;2022-12-18T14:43:09;-0.40;99.90
43673;DHT22;41723;49.326;8.430;2022-12-18T14:48:07;-0.40;99.90
43673;DHT22;41723;49.326;8.430;2022-12-18T14:50:32;-0.60;99.90
43673;DHT22;41723;49.326;8.430;2022-12-18T14:52:58;-0.50;99.90
43673;DHT22;41723;49.326;8.430;2022-12-18T14:55:24;-0.50;99.90
43673;DHT22;41723;49.326;8.430;2022-12-18T14:57:50;-0.50;99.90
43673;DHT22;41723;49.326;8.430;2022-12-18T15:00:18;-0.40;99.90
43673;DHT22;41723;49.326;8.430;2022-12-18T15:03:02;-0.40;99.90
43673;DHT22;41723;49.326;8.430;2022-12-18T15:05:32;-0.40;99.90
43673;DHT22;41723;49.326;8.430;2022-12-18T15:07:59;-0.30;99.90
43673;DHT22;41723;49.326;8.430;2022-12-18T15:10:26;-0.20;99.90
43673;DHT22;41723;49.326;8.430;2022-12-18T15:20:27;-0.10;99.90
43673;DHT22;41723;49.326;8.430;2022-12-18T15:22:53;-0.20;99.90
43673;DHT22;41723;49.326;8.430;2022-12-18T15:25:27;-0.20;99.90
43673;DHT22;41723;49.326;8.430;2022-12-18T15:27:56;-0.20;99.90
43673;DHT22;41723;49.326;8.430;2022-12-18T15:30:22;-0.20;99.90
43673;DHT22;41723;49.326;8.430;2022-12-18T15:32:49;-0.30;99.90
43673;DHT22;41723;49.326;8.430;2022-12-18T15:35:16;-0.30;99.90
43673;DHT22;41723;49.326;8.430;2022-12-18T15:37:42;-0.30;99.90
43673;DHT22;41723;49.326;8.430;2022-12-18T15:40:08;-0.30;99.90
43673;DHT22;41723;49.326;8.430;2022-12-18T15:42:37;-0.30;99.90
43673;DHT22;41723;49.326;8.430;2022-12-18T15:45:21;-0.30;99.90
43673;DHT22;41723;49.326;8.430;2022-12-18T15:47:46;-0.20;99.90
43673;DHT22;41723;49.326;8.430;2022-12-18T15:50:12;-0.20;99.90
43673;DHT22;41723;49.326;8.430;2022-12-18T15:52:45;-0.20;99.90
43673;DHT22;41723;49.326;8.430;2022-12-18T15:55:19;-0.30;99.90
43673;DHT22;41723;49.326;8.430;2022-12-18T15:58:03;-0.30;99.90
43673;DHT22;41723;49.326;8.430;2022-12-18T16:00:29;-0.30;99.90
43673;DHT22;41723;49.326;8.430;2022-12-18T16:02:55;-0.20;99.90
43673;DHT22;41723;49.326;8.430;2022-12-18T16:05:21;-0.20;99.90
43673;DHT22;41723;49.326;8.430;2022-12-18T16:07:47;-0.10;99.90
43673;DHT22;41723;49.326;8.430;2022-12-18T16:10:13;-0.20;99.90
43673;DHT22;41723;49.326;8.430;2022-12-18T16:12:38;-0.20;99.90
43673;DHT22;41723;49.326;8.430;2022-12-18T16:15:05;-0.20;99.90
43673;DHT22;41723;49.326;8.430;2022-12-18T16:17:31;-0.20;99.90
43673;DHT22;41723;49.326;8.430;2022-12-18T16:19:56;-0.10;99.90
43673;DHT22;41723;49.326;8.430;2022-12-18T16:22:23;-0.10;99.90
43673;DHT22;41723;49.326;8.430;2022-12-18T16:24:50;-0.20;99.90
43673;DHT22;41723;49.326;8.430;2022-12-18T16:27:17;-0.20;99.90
43673;DHT22;41723;49.326;8.430;2022-12-18T16:29:42;-0.10;99.90
43673;DHT22;41723;49.326;8.430;2022-12-18T16:32:10;-0.10;99.90
43673;DHT22;41723;49.326;8.430;2022-12-18T16:34:36;-0.10;99.90
43673;DHT22;41723;49.326;8.430;2022-12-18T16:37:03;-0.20;99.90
43673;DHT22;41723;49.326;8.430;2022-12-18T16:39:30;-0.20;99.90
43673;DHT22;41723;49.326;8.430;2022-12-18T16:41:57;-0.20;99.90
43673;DHT22;41723;49.326;8.430;2022-12-18T16:44:22;-0.20;99.90
43673;DHT22;41723;49.326;8.430;2022-12-18T16:46:49;-0.20;99.90
43673;DHT22;41723;49.326;8.430;2022-12-18T16:49:15;-0.10;99.90
43673;DHT22;41723;49.326;8.430;2022-12-18T16:51:41;-0.20;99.90
43673;DHT22;41723;49.326;8.430;2022-12-18T16:54:07;-0.10;99.90
43673;DHT22;41723;49.326;8.430;2022-12-18T16:56:33;-0.20;99.90
43673;DHT22;41723;49.326;8.430;2022-12-18T16:59:00;-0.20;99.90
43673;DHT22;41723;49.326;8.430;2022-12-18T17:01:26;-0.20;99.90
43673;DHT22;41723;49.326;8.430;2022-12-18T17:03:52;-0.20;99.90
43673;DHT22;41723;49.326;8.430;2022-12-18T17:06:20;-0.30;99.90
43673;DHT22;41723;49.326;8.430;2022-12-18T17:08:46;-0.30;99.90
43673;DHT22;41723;49.326;8.430;2022-12-18T17:11:12;-0.20;99.90
43673;DHT22;41723;49.326;8.430;2022-12-18T17:13:38;-0.20;99.90
43673;DHT22;41723;49.326;8.430;2022-12-18T17:16:04;-0.20;99.90
43673;DHT22;41723;49.326;8.430;2022-12-18T17:18:31;-0.20;99.90
43673;DHT22;41723;49.326;8.430;2022-12-18T17:21:00;-0.20;99.90
43673;DHT22;41723;49.326;8.430;2022-12-18T17:23:27;-0.30;99.90
43673;DHT22;41723;49.326;8.430;2022-12-18T17:25:53;-0.30;99.90
43673;DHT22;41723;49.326;8.430;2022-12-18T17:28:19;-0.30;99.90
43673;DHT22;41723;49.326;8.430;2022-12-18T17:30:46;-0.30;99.90
43673;DHT22;41723;49.326;8.430;2022-12-18T17:33:12;-0.30;99.90